Alsen, North Dakota
Current Conditions -  °F | °C
As of 1:55 PM on Thursday 30 Oct 2014 (Local Time) from KD55 Reporting Station
Overcast Overcast  
Wind Chill: 19°   Ceiling: 2700
Heat Index: 32°   Visibility: 10mi
Dew Point: 19°   Wind: 23mph
Humidity: 60%   Direction: 360°N
Pressure: 30.36"   Gusts: 30mph
Location:  48.63°N, 98.7°W
Report Text: KD55 301855Z AUTO 36020G26KT 10SM OVC027 00/M07 A3036 RMK AO2
Loading
Personal Weather Stations






























Interactive Weather Map
Tropical Storm Tracking
New forecast layout! Learn more

10-Day Weather Forecast

Advertisements
Track Severe Weather on mobile